Clemons, Iowa
Current Conditions -  °F | °C
As of 1:17 PM on Sunday 23 Nov 2014 (Local Time) from KMIW Reporting Station
Haze Haze  
Wind Chill: 51°   Ceiling: 400
Heat Index: 51°   Visibility: 2.5mi
Dew Point: 50°   Wind: 5mph
Humidity: 96%   Direction: 140°SE
Pressure: 29.37"   Gusts: NA
Location:  42.11°N, 93.16°W
Report Text: KMIW 231917Z AUTO 14004KT 2 1/2SM BR OVC004 11/10 A2937 RMK AO2 RAE16 P0002 T01060100
Loading
Personal Weather Stations






























Interactive Weather Map New forecast layout! Learn more

10-Day Weather Forecast

Advertisements
Track Severe Weather on mobile